Time;durP1;ratioP1;P1;durP2;ratioP2;P2;SDS_P1;SDS_P2;PMS_P1;PMS_P2;Temp;Humidity;BMP_temperature;BMP_pressure;BME280_temperature;BME280_humidity;BME280_pressure;Samples;Min_cycle;Max_cycle;Signal;HPM_P1;HPM_P2
2021/01/11 00:02:49;;;;;;;11.83;6.43;;;;;;;;;;10318937;28;20042;-62
2021/01/11 00:07:46;;;;;;;14.47;5.20;;;;;;;;;;10313172;28;20047;-63
2021/01/11 00:12:44;;;;;;;11.50;6.93;;;;;;;;;;10317696;28;20048;-64
2021/01/11 00:17:42;;;;;;;18.73;7.33;;;;;;;;;;10303271;28;20037;-62
2021/01/11 00:22:42;;;;;;;13.00;5.20;;;;;;;;;;10317554;28;20380;-63
2021/01/11 00:27:40;;;;;;;13.55;6.18;;;;;;;;;;10310127;28;20041;-63
2021/01/11 00:32:38;;;;;;;15.80;7.50;;;;;;;;;;10310298;28;20037;-65
2021/01/11 00:37:36;;;;;;;19.77;9.20;;;;;;;;;;10292813;28;20039;-62
2021/01/11 00:42:35;;;;;;;21.23;8.17;;;;;;;;;;10321580;28;20495;-63
2021/01/11 00:47:38;;;;;;;15.70;7.55;;;;;;;;;;10313237;28;20040;-62
2021/01/11 00:52:36;;;;;;;19.70;8.50;;;;;;;;;;10316487;28;20646;-63
2021/01/11 00:57:34;;;;;;;24.47;8.67;;;;;;;;;;10313608;28;20415;-59
2021/01/11 01:02:36;;;;;;;13.32;6.78;;;;;;;;;;10309769;28;20136;-62
2021/01/11 01:07:36;;;;;;;17.40;7.50;;;;;;;;;;10309988;28;20039;-62
2021/01/11 01:12:33;;;;;;;27.95;9.90;;;;;;;;;;10308016;28;20060;-63
2021/01/11 01:17:31;;;;;;;17.80;7.90;;;;;;;;;;10316203;28;20427;-62
2021/01/11 01:22:28;;;;;;;20.93;8.07;;;;;;;;;;10309610;28;20458;-63
2021/01/11 01:27:26;;;;;;;21.43;8.63;;;;;;;;;;10285061;28;20434;-61
2021/01/11 01:32:23;;;;;;;18.33;7.57;;;;;;;;;;10312654;28;20029;-63
2021/01/11 01:37:20;;;;;;;26.40;10.10;;;;;;;;;;10314018;28;20032;-63
2021/01/11 01:42:18;;;;;;;19.80;7.73;;;;;;;;;;10299398;28;20044;-62
2021/01/11 01:47:15;;;;;;;18.37;8.33;;;;;;;;;;10314768;28;20423;-62
2021/01/11 01:52:13;;;;;;;28.63;11.33;;;;;;;;;;10311365;28;20041;-63
2021/01/11 01:57:10;;;;;;;22.47;8.63;;;;;;;;;;10312332;28;20041;-62
2021/01/11 02:02:12;;;;;;;18.53;7.57;;;;;;;;;;10308533;28;20570;-63
2021/01/11 02:07:32;;;;;;;25.17;10.65;;;;;;;;;;10308738;28;20037;-62
2021/01/11 02:13:02;;;;;;;18.90;8.93;;;;;;;;;;10310254;28;20037;-63
2021/01/11 02:18:01;;;;;;;18.77;8.35;;;;;;;;;;10278855;28;20503;-62
2021/01/11 02:23:17;;;;;;;20.52;7.28;;;;;;;;;;10305362;28;20039;-63
2021/01/11 02:28:21;;;;;;;15.18;6.65;;;;;;;;;;10313710;28;20475;-64
2021/01/11 02:33:18;;;;;;;22.50;9.07;;;;;;;;;;10313259;28;20029;-63
2021/01/11 02:38:20;;;;;;;21.70;8.07;;;;;;;;;;10312561;28;20036;-63
2021/01/11 02:43:17;;;;;;;29.70;11.27;;;;;;;;;;10313832;28;20570;-62
2021/01/11 02:48:23;;;;;;;30.43;11.87;;;;;;;;;;10316598;28;20399;-63
2021/01/11 02:53:27;;;;;;;31.58;11.05;;;;;;;;;;10308343;28;20414;-62
2021/01/11 02:58:44;;;;;;;31.40;11.82;;;;;;;;;;10326880;22;20106;-67
2021/01/11 03:03:43;;;;;;;34.13;11.98;;;;;;;;;;10285799;28;20137;-67
2021/01/11 03:08:40;;;;;;;27.08;11.10;;;;;;;;;;10267040;28;20400;-66
2021/01/11 03:13:38;;;;;;;25.20;11.33;;;;;;;;;;10292127;28;20037;-66
2021/01/11 03:18:35;;;;;;;26.50;11.80;;;;;;;;;;10270908;28;20054;-66
2021/01/11 03:23:32;;;;;;;38.03;13.67;;;;;;;;;;10264531;28;20061;-65
2021/01/11 03:28:30;;;;;;;24.27;11.17;;;;;;;;;;10280662;28;20095;-65
2021/01/11 03:33:27;;;;;;;32.10;11.97;;;;;;;;;;10291073;28;20025;-65
2021/01/11 03:38:24;;;;;;;27.83;10.20;;;;;;;;;;10298359;28;20041;-64
2021/01/11 03:43:22;;;;;;;37.47;14.47;;;;;;;;;;10291879;28;20095;-67
2021/01/11 03:48:20;;;;;;;30.50;12.37;;;;;;;;;;10301236;28;20032;-65
2021/01/11 03:53:17;;;;;;;32.42;13.43;;;;;;;;;;10295902;28;20022;-67
2021/01/11 03:58:15;;;;;;;33.60;12.87;;;;;;;;;;10301451;28;20459;-65
2021/01/11 04:03:12;;;;;;;39.63;12.47;;;;;;;;;;10300416;28;20036;-65
2021/01/11 04:08:09;;;;;;;33.07;12.87;;;;;;;;;;10292640;28;20160;-67
2021/01/11 04:13:07;;;;;;;36.17;13.40;;;;;;;;;;10289814;28;20037;-65
2021/01/11 04:18:04;;;;;;;23.90;9.67;;;;;;;;;;10295202;28;20592;-65
2021/01/11 04:23:02;;;;;;;30.07;11.30;;;;;;;;;;10278787;28;20034;-65
2021/01/11 04:28:00;;;;;;;31.30;13.15;;;;;;;;;;10292628;28;20025;-67
2021/01/11 04:32:58;;;;;;;28.90;12.27;;;;;;;;;;10292405;28;20453;-67
2021/01/11 04:37:56;;;;;;;22.30;10.97;;;;;;;;;;10290828;28;20099;-65
2021/01/11 04:43:03;;;;;;;34.67;12.35;;;;;;;;;;10288862;28;20129;-65
2021/01/11 04:48:00;;;;;;;37.30;12.00;;;;;;;;;;10283535;28;20124;-67
2021/01/11 04:53:00;;;;;;;34.75;13.02;;;;;;;;;;10279773;28;20478;-65
2021/01/11 04:57:57;;;;;;;26.65;11.18;;;;;;;;;;10292184;28;20043;-65
2021/01/11 05:02:59;;;;;;;30.97;12.13;;;;;;;;;;10272603;28;20496;-65
2021/01/11 05:07:57;;;;;;;28.15;10.95;;;;;;;;;;10271990;28;20406;-64
2021/01/11 05:12:55;;;;;;;27.80;10.82;;;;;;;;;;10289170;28;20515;-67
2021/01/11 05:17:52;;;;;;;22.00;9.10;;;;;;;;;;10282257;28;20451;-66
2021/01/11 05:22:51;;;;;;;19.47;8.03;;;;;;;;;;10279708;28;20188;-66
2021/01/11 05:28:21;;;;;;;14.18;6.63;;;;;;;;;;10285285;28;20084;-66
2021/01/11 05:33:23;;;;;;;17.58;8.02;;;;;;;;;;10253564;28;20039;-67
2021/01/11 05:38:20;;;;;;;19.05;7.15;;;;;;;;;;10278904;28;20427;-64
2021/01/11 05:43:19;;;;;;;15.07;5.93;;;;;;;;;;10277691;28;20033;-66
2021/01/11 05:48:16;;;;;;;17.33;7.38;;;;;;;;;;10289029;28;20023;-65
2021/01/11 05:53:14;;;;;;;18.17;6.30;;;;;;;;;;10288235;28;20029;-67
2021/01/11 05:58:11;;;;;;;16.77;6.43;;;;;;;;;;10265435;28;20476;-67
2021/01/11 06:03:09;;;;;;;8.77;4.57;;;;;;;;;;10287839;28;20025;-67
2021/01/11 06:08:11;;;;;;;13.45;5.53;;;;;;;;;;10276010;28;20400;-66
2021/01/11 06:13:09;;;;;;;11.90;5.95;;;;;;;;;;10288564;28;20041;-66
2021/01/11 06:18:07;;;;;;;12.05;6.13;;;;;;;;;;10281297;28;20030;-66
2021/01/11 06:23:05;;;;;;;;;;;;;;;;;;10277485;28;20052;-66
2021/01/11 06:28:09;;;;;;;8.80;4.83;;;;;;;;;;10286925;28;19920;-66
2021/01/11 06:33:06;;;;;;;15.90;6.53;;;;;;;;;;10292732;28;20669;-66
2021/01/11 06:38:22;;;;;;;13.87;6.07;;;;;;;;;;10265581;28;20086;-66
2021/01/11 06:43:20;;;;;;;13.23;6.88;;;;;;;;;;10268891;28;20091;-66
2021/01/11 06:48:18;;;;;;;;;;;;;;;;;;10280221;28;20101;-66
2021/01/11 06:53:28;;;;;;;20.45;9.38;;;;;;;;;;10268482;28;20405;-66
2021/01/11 06:58:26;;;;;;;21.27;8.45;;;;;;;;;;10294957;28;20052;-66
2021/01/11 07:03:40;;;;;;;18.03;8.87;;;;;;;;;;10300396;28;20120;-66
2021/01/11 07:08:38;;;;;;;17.90;7.88;;;;;;;;;;10274548;28;20602;-67
2021/01/11 07:13:42;;;;;;;19.80;8.13;;;;;;;;;;10271376;28;20122;-66
2021/01/11 07:18:40;;;;;;;18.27;8.23;;;;;;;;;;10291754;28;20030;-66
2021/01/11 07:23:37;;;;;;;16.33;8.35;;;;;;;;;;10291067;28;20033;-66
2021/01/11 07:28:35;;;;;;;17.67;8.80;;;;;;;;;;10286397;28;20039;-66
2021/01/11 07:33:32;;;;;;;14.67;7.27;;;;;;;;;;10278460;28;20415;-66
2021/01/11 07:38:30;;;;;;;17.10;7.90;;;;;;;;;;10302119;28;20044;-66
2021/01/11 07:43:27;;;;;;;23.57;8.47;;;;;;;;;;10277805;28;20025;-66
2021/01/11 07:48:25;;;;;;;21.27;8.90;;;;;;;;;;10289812;28;20037;-66
2021/01/11 07:53:23;;;;;;;21.33;7.83;;;;;;;;;;10299491;28;20112;-66
2021/01/11 07:58:24;;;;;;;15.93;7.93;;;;;;;;;;10286532;28;20102;-66
2021/01/11 08:03:21;;;;;;;20.10;9.98;;;;;;;;;;10285450;28;20095;-65
2021/01/11 08:08:20;;;;;;;19.20;8.10;;;;;;;;;;10285919;28;20570;-65
2021/01/11 08:13:20;;;;;;;19.52;7.82;;;;;;;;;;10276937;28;20435;-66
2021/01/11 08:18:18;;;;;;;24.45;9.23;;;;;;;;;;10285082;28;20447;-66
2021/01/11 08:23:15;;;;;;;27.93;10.13;;;;;;;;;;10285496;28;20108;-66
2021/01/11 08:28:12;;;;;;;25.37;9.33;;;;;;;;;;10280902;28;20109;-65
2021/01/11 08:33:10;;;;;;;26.77;11.57;;;;;;;;;;10275374;28;20514;-66
2021/01/11 08:38:09;;;;;;;28.27;8.97;;;;;;;;;;10282559;28;20503;-66
2021/01/11 08:43:13;;;;;;;22.42;8.45;;;;;;;;;;10293602;28;20036;-66
2021/01/11 08:48:14;;;;;;;18.70;9.27;;;;;;;;;;10272771;28;20037;-65
2021/01/11 08:53:18;;;;;;;26.85;11.00;;;;;;;;;;10271978;28;20037;-65
2021/01/11 08:58:15;;;;;;;23.95;9.55;;;;;;;;;;10259154;28;20041;-66
2021/01/11 09:03:13;;;;;;;21.47;9.60;;;;;;;;;;10283711;28;20499;-66
2021/01/11 09:08:15;;;;;;;27.33;11.30;;;;;;;;;;10266914;28;20025;-67
2021/01/11 09:13:16;;;;;;;27.45;10.50;;;;;;;;;;10287491;28;20041;-65
2021/01/11 09:18:14;;;;;;;23.45;10.45;;;;;;;;;;10283424;28;20049;-65
2021/01/11 09:23:12;;;;;;;27.48;10.45;;;;;;;;;;10282494;28;20021;-65
2021/01/11 09:28:09;;;;;;;28.48;11.20;;;;;;;;;;10285336;28;20320;-66
2021/01/11 09:33:07;;;;;;;23.47;9.27;;;;;;;;;;10284056;28;20128;-65
2021/01/11 09:38:04;;;;;;;35.40;13.63;;;;;;;;;;10286466;28;20052;-65
2021/01/11 09:43:01;;;;;;;34.80;11.63;;;;;;;;;;10276534;28;20042;-65
2021/01/11 09:47:59;;;;;;;19.53;8.53;;;;;;;;;;10279177;28;20034;-65
2021/01/11 09:52:59;;;;;;;24.33;8.87;;;;;;;;;;10261769;28;20383;-65
2021/01/11 09:57:57;;;;;;;25.70;9.95;;;;;;;;;;10286770;28;20407;-62
2021/01/11 10:02:54;;;;;;;27.23;9.30;;;;;;;;;;10284051;28;20045;-63
2021/01/11 10:07:51;;;;;;;21.47;9.07;;;;;;;;;;10270884;28;20052;-64
2021/01/11 10:12:49;;;;;;;25.50;10.27;;;;;;;;;;10270626;28;20040;-63
2021/01/11 10:17:46;;;;;;;25.20;8.93;;;;;;;;;;10249837;28;20041;-64
2021/01/11 10:22:44;;;;;;;22.27;8.53;;;;;;;;;;10271289;28;20030;-64
2021/01/11 10:27:42;;;;;;;25.50;9.25;;;;;;;;;;10288511;28;21785;-66
2021/01/11 10:32:40;;;;;;;26.57;10.50;;;;;;;;;;10278318;28;20033;-66
2021/01/11 10:37:37;;;;;;;17.15;7.25;;;;;;;;;;10264971;28;20041;-66
2021/01/11 10:42:35;;;;;;;19.23;7.37;;;;;;;;;;10266642;28;20037;-65
2021/01/11 10:47:32;;;;;;;17.63;7.63;;;;;;;;;;10277836;28;20086;-65
2021/01/11 10:52:29;;;;;;;25.23;8.67;;;;;;;;;;10295691;28;20048;-65
2021/01/11 10:57:27;;;;;;;16.13;7.50;;;;;;;;;;10273532;28;20056;-65
2021/01/11 11:02:24;;;;;;;18.33;7.33;;;;;;;;;;10282079;28;20046;-64
2021/01/11 11:07:21;;;;;;;15.37;5.87;;;;;;;;;;10259875;28;20419;-64
2021/01/11 11:12:20;;;;;;;17.97;7.97;;;;;;;;;;10287145;28;20079;-65
2021/01/11 11:17:18;;;;;;;20.67;7.75;;;;;;;;;;10267922;28;20041;-65
2021/01/11 11:22:15;;;;;;;21.73;8.67;;;;;;;;;;10289305;28;20067;-65
2021/01/11 11:27:13;;;;;;;22.73;8.30;;;;;;;;;;10275040;28;20434;-66
2021/01/11 11:32:10;;;;;;;20.23;8.20;;;;;;;;;;10256599;28;20038;-65
2021/01/11 11:37:08;;;;;;;19.13;7.90;;;;;;;;;;10282532;28;20037;-65
2021/01/11 11:42:05;;;;;;;23.40;8.70;;;;;;;;;;10267627;28;20611;-65
2021/01/11 11:47:03;;;;;;;16.50;8.07;;;;;;;;;;10252831;28;20542;-65
2021/01/11 11:52:00;;;;;;;15.03;8.47;;;;;;;;;;10286171;28;20123;-65
2021/01/11 11:56:58;;;;;;;17.97;7.67;;;;;;;;;;10267858;28;20132;-64
2021/01/11 12:01:55;;;;;;;20.03;7.37;;;;;;;;;;10238751;28;20535;-65
2021/01/11 12:06:52;;;;;;;15.07;7.87;;;;;;;;;;10255271;28;20239;-65
2021/01/11 12:11:50;;;;;;;22.10;9.00;;;;;;;;;;10254878;28;20041;-65
2021/01/11 12:16:47;;;;;;;21.60;9.43;;;;;;;;;;10278879;28;20033;-65
2021/01/11 12:21:45;;;;;;;19.50;8.77;;;;;;;;;;10279315;28;20518;-65
2021/01/11 12:26:47;;;;;;;21.33;8.93;;;;;;;;;;10279003;28;20063;-65
2021/01/11 12:31:45;;;;;;;24.75;10.23;;;;;;;;;;10299608;28;20026;-64
2021/01/11 12:36:42;;;;;;;21.50;9.33;;;;;;;;;;10291585;28;20048;-65
2021/01/11 12:41:40;;;;;;;20.40;9.70;;;;;;;;;;10290672;28;20499;-65
2021/01/11 12:46:37;;;;;;;32.88;13.73;;;;;;;;;;10288005;28;20045;-64
2021/01/11 12:51:35;;;;;;;25.47;11.23;;;;;;;;;;10285253;28;20095;-64
2021/01/11 12:56:32;;;;;;;24.27;12.37;;;;;;;;;;10294070;28;20038;-64
2021/01/11 13:01:30;;;;;;;28.67;11.10;;;;;;;;;;10288550;28;20040;-66
2021/01/11 13:06:31;;;;;;;29.77;12.52;;;;;;;;;;10293839;28;20178;-65
2021/01/11 13:11:29;;;;;;;25.45;11.40;;;;;;;;;;10281100;28;20040;-66
2021/01/11 13:16:26;;;;;;;34.47;12.25;;;;;;;;;;10292940;28;20390;-66
2021/01/11 13:21:24;;;;;;;18.43;9.20;;;;;;;;;;10292798;28;20044;-66
2021/01/11 13:26:22;;;;;;;28.37;11.93;;;;;;;;;;10292829;28;20067;-64
2021/01/11 13:31:20;;;;;;;26.02;11.55;;;;;;;;;;10285160;28;20351;-67
2021/01/11 13:36:25;;;;;;;25.83;12.48;;;;;;;;;;10285753;28;20047;-67
2021/01/11 13:41:31;;;;;;;23.85;11.05;;;;;;;;;;10297745;28;20504;-66
2021/01/11 13:46:29;;;;;;;23.90;10.93;;;;;;;;;;10276610;28;20039;-64
2021/01/11 13:51:27;;;;;;;30.08;13.50;;;;;;;;;;10293143;28;20056;-65
2021/01/11 13:56:25;;;;;;;29.53;13.13;;;;;;;;;;10277664;28;20531;-65
2021/01/11 14:01:23;;;;;;;30.20;13.80;;;;;;;;;;10289959;28;20026;-65
2021/01/11 14:06:27;;;;;;;24.08;11.98;;;;;;;;;;10282627;28;20419;-65
2021/01/11 14:11:25;;;;;;;25.63;12.55;;;;;;;;;;10273337;28;20563;-66
2021/01/11 14:16:23;;;;;;;26.60;12.83;;;;;;;;;;10289905;28;20132;-66
2021/01/11 14:21:21;;;;;;;30.67;12.90;;;;;;;;;;10284688;28;20040;-66
2021/01/11 14:26:18;;;;;;;;;;;;;;;;;;10288849;28;20511;-65
2021/01/11 14:31:16;;;;;;;25.88;12.10;;;;;;;;;;10282041;28;19913;-65
2021/01/11 14:36:13;;;;;;;26.83;12.70;;;;;;;;;;10275867;28;20060;-64
2021/01/11 14:41:11;;;;;;;27.07;11.87;;;;;;;;;;10288874;28;20038;-64
2021/01/11 14:46:19;;;;;;;26.63;10.85;;;;;;;;;;10272122;28;20042;-64
2021/01/11 14:51:16;;;;;;;24.05;11.90;;;;;;;;;;10262249;28;20534;-64
2021/01/11 14:56:14;;;;;;;25.23;11.63;;;;;;;;;;10271115;28;20396;-64
2021/01/11 15:01:12;;;;;;;26.10;13.27;;;;;;;;;;10259911;28;20030;-64
2021/01/11 15:06:13;;;;;;;24.75;11.32;;;;;;;;;;10270052;28;20836;-65
2021/01/11 15:11:10;;;;;;;20.17;10.25;;;;;;;;;;10235842;28;20538;-65
2021/01/11 15:16:08;;;;;;;27.70;12.33;;;;;;;;;;10267972;22;20423;-65
2021/01/11 15:21:10;;;;;;;25.45;10.38;;;;;;;;;;10260884;28;20137;-65
2021/01/11 15:26:08;;;;;;;22.60;11.48;;;;;;;;;;10279146;28;20069;-64
2021/01/11 15:31:06;;;;;;;25.20;11.40;;;;;;;;;;10265953;28;20108;-64
2021/01/11 15:36:05;;;;;;;28.25;12.18;;;;;;;;;;10290559;28;20281;-65
2021/01/11 15:41:03;;;;;;;26.92;10.85;;;;;;;;;;10266646;28;20087;-65
2021/01/11 15:46:01;;;;;;;24.77;11.23;;;;;;;;;;10296802;28;20087;-64
2021/01/11 15:50:58;;;;;;;23.43;11.00;;;;;;;;;;10290359;28;20044;-64
2021/01/11 15:55:55;;;;;;;18.70;9.87;;;;;;;;;;10283625;28;20118;-65
2021/01/11 16:00:53;;;;;;;23.10;12.73;;;;;;;;;;10272057;28;20045;-65
2021/01/11 16:05:57;;;;;;;15.77;9.63;;;;;;;;;;10286622;28;20132;-65
2021/01/11 16:10:55;;;;;;;22.40;9.73;;;;;;;;;;10287490;28;20034;-64
2021/01/11 16:15:53;;;;;;;;;;;;;;;;;;10286687;28;20103;-65
2021/01/11 16:20:50;;;;;;;22.02;12.23;;;;;;;;;;10287218;28;19917;-64
2021/01/11 16:25:48;;;;;;;24.07;11.87;;;;;;;;;;10290272;28;20107;-65
2021/01/11 16:30:47;;;;;;;21.50;12.17;;;;;;;;;;10300698;28;20040;-65
2021/01/11 16:35:45;;;;;;;23.23;11.63;;;;;;;;;;10279829;28;20034;-65
2021/01/11 16:40:42;;;;;;;22.63;11.60;;;;;;;;;;10271915;28;20037;-64
2021/01/11 16:45:39;;;;;;;20.13;11.83;;;;;;;;;;10289882;28;20048;-65
2021/01/11 16:50:37;;;;;;;19.73;11.27;;;;;;;;;;10297131;28;20212;-65
2021/01/11 16:55:34;;;;;;;22.83;12.00;;;;;;;;;;10295453;28;20029;-64
2021/01/11 17:00:32;;;;;;;19.93;11.53;;;;;;;;;;10288152;28;20099;-65
2021/01/11 17:05:29;;;;;;;20.00;11.07;;;;;;;;;;10293350;28;20180;-63
2021/01/11 17:10:27;;;;;;;24.90;12.10;;;;;;;;;;10296087;28;20041;-64
2021/01/11 17:15:27;;;;;;;19.83;10.17;;;;;;;;;;10268217;28;20045;-65
2021/01/11 17:20:26;;;;;;;25.83;12.80;;;;;;;;;;10287469;28;20276;-63
2021/01/11 17:25:23;;;;;;;25.17;13.70;;;;;;;;;;10292554;28;20550;-64
2021/01/11 17:30:20;;;;;;;21.10;11.03;;;;;;;;;;10267836;28;20496;-63
2021/01/11 17:35:18;;;;;;;27.27;13.27;;;;;;;;;;10266214;28;20029;-63
2021/01/11 17:40:15;;;;;;;25.60;12.87;;;;;;;;;;10274831;28;20034;-64
2021/01/11 17:45:13;;;;;;;23.67;11.90;;;;;;;;;;10273475;28;21041;-65
2021/01/11 17:50:11;;;;;;;32.40;14.00;;;;;;;;;;10273203;28;20487;-64
2021/01/11 17:55:09;;;;;;;22.42;12.32;;;;;;;;;;10287223;28;20658;-63
2021/01/11 18:00:12;;;;;;;29.60;13.83;;;;;;;;;;10291814;28;20037;-64
2021/01/11 18:05:10;;;;;;;26.23;13.60;;;;;;;;;;10292386;28;20037;-64
2021/01/11 18:10:12;;;;;;;28.73;14.50;;;;;;;;;;10275091;28;20411;-64
2021/01/11 18:15:09;;;;;;;27.05;13.52;;;;;;;;;;10285741;28;21029;-64
2021/01/11 18:20:07;;;;;;;24.43;13.13;;;;;;;;;;10292657;28;20500;-64
2021/01/11 18:25:05;;;;;;;22.87;10.87;;;;;;;;;;10276735;28;20057;-64
2021/01/11 18:30:03;;;;;;;23.60;12.30;;;;;;;;;;10281820;28;20068;-64
2021/01/11 18:35:00;;;;;;;26.80;12.93;;;;;;;;;;10281105;28;20037;-63
2021/01/11 18:39:57;;;;;;;24.87;9.97;;;;;;;;;;10282313;28;20057;-64
2021/01/11 18:44:55;;;;;;;18.73;8.60;;;;;;;;;;10274456;28;20507;-64
2021/01/11 18:49:52;;;;;;;29.00;13.73;;;;;;;;;;10291852;28;20041;-64
2021/01/11 18:54:50;;;;;;;29.00;13.70;;;;;;;;;;10290120;28;20076;-64
2021/01/11 18:59:47;;;;;;;30.37;12.77;;;;;;;;;;10287306;28;20045;-64
2021/01/11 19:04:45;;;;;;;32.17;14.10;;;;;;;;;;10266344;28;20037;-63
2021/01/11 19:09:42;;;;;;;29.03;13.73;;;;;;;;;;10283939;28;20060;-65
2021/01/11 19:14:40;;;;;;;24.20;15.20;;;;;;;;;;10270187;28;20048;-64
2021/01/11 19:19:37;;;;;;;28.43;13.17;;;;;;;;;;10276028;28;20033;-65
2021/01/11 19:24:35;;;;;;;27.40;13.47;;;;;;;;;;10292973;28;20115;-62
2021/01/11 19:29:32;;;;;;;24.00;11.73;;;;;;;;;;10280583;28;20132;-64
2021/01/11 19:34:30;;;;;;;30.67;13.00;;;;;;;;;;10293685;28;20520;-63
2021/01/11 19:39:27;;;;;;;27.63;14.13;;;;;;;;;;10262982;28;20068;-65
2021/01/11 19:44:26;;;;;;;27.27;14.37;;;;;;;;;;10282374;28;20091;-64
2021/01/11 19:49:23;;;;;;;22.20;11.75;;;;;;;;;;10281792;28;20033;-64
2021/01/11 19:54:20;;;;;;;27.33;14.17;;;;;;;;;;10281778;28;20041;-64
2021/01/11 19:59:18;;;;;;;31.60;12.80;;;;;;;;;;10285461;28;20572;-63
2021/01/11 20:04:17;;;;;;;31.87;12.47;;;;;;;;;;10295576;28;20400;-65
2021/01/11 20:09:14;;;;;;;22.30;12.60;;;;;;;;;;10292177;28;20123;-63
2021/01/11 20:14:12;;;;;;;24.77;11.70;;;;;;;;;;10296950;28;20177;-64
2021/01/11 20:19:13;;;;;;;23.73;14.10;;;;;;;;;;10295287;28;20041;-65
2021/01/11 20:24:11;;;;;;;19.52;10.15;;;;;;;;;;10295049;28;20124;-63
2021/01/11 20:29:10;;;;;;;19.60;11.35;;;;;;;;;;10293059;28;20076;-64
2021/01/11 20:34:07;;;;;;;22.77;11.48;;;;;;;;;;10285938;28;20718;-65
2021/01/11 20:39:06;;;;;;;18.97;10.13;;;;;;;;;;10284486;28;20048;-66
2021/01/11 20:44:03;;;;;;;16.65;8.95;;;;;;;;;;10268304;28;20045;-65
2021/01/11 20:49:01;;;;;;;18.53;7.53;;;;;;;;;;10276836;28;20071;-64
2021/01/11 20:53:58;;;;;;;19.20;9.67;;;;;;;;;;10275387;28;20065;-65
2021/01/11 20:58:56;;;;;;;11.23;7.40;;;;;;;;;;10296454;28;20043;-64
2021/01/11 21:03:53;;;;;;;13.17;7.43;;;;;;;;;;10282026;28;20489;-64
2021/01/11 21:08:50;;;;;;;13.87;6.73;;;;;;;;;;10285784;28;20046;-64
2021/01/11 21:13:48;;;;;;;14.90;9.67;;;;;;;;;;10284101;28;20034;-65
2021/01/11 21:18:45;;;;;;;16.80;8.00;;;;;;;;;;10281467;28;20377;-64
2021/01/11 21:23:43;;;;;;;16.57;7.43;;;;;;;;;;10293628;28;20033;-64
2021/01/11 21:28:41;;;;;;;16.03;8.83;;;;;;;;;;10263951;28;20021;-64
2021/01/11 21:33:39;;;;;;;11.87;5.70;;;;;;;;;;10274588;28;20120;-64
2021/01/11 21:38:36;;;;;;;18.52;6.50;;;;;;;;;;10287826;28;20030;-64
2021/01/11 21:43:35;;;;;;;18.53;8.47;;;;;;;;;;10273347;28;20087;-64
2021/01/11 21:48:32;;;;;;;11.73;5.70;;;;;;;;;;10267970;28;20041;-64
2021/01/11 21:53:30;;;;;;;13.17;7.97;;;;;;;;;;10296500;28;20079;-64
2021/01/11 21:58:28;;;;;;;13.57;7.00;;;;;;;;;;10287283;28;20584;-65
2021/01/11 22:03:25;;;;;;;14.93;6.43;;;;;;;;;;10277447;28;20100;-64
2021/01/11 22:08:22;;;;;;;16.30;6.27;;;;;;;;;;10286615;28;20040;-64
2021/01/11 22:13:20;;;;;;;14.93;6.80;;;;;;;;;;10284429;28;20041;-64
2021/01/11 22:18:17;;;;;;;14.17;6.63;;;;;;;;;;10276231;28;20073;-64
2021/01/11 22:23:15;;;;;;;17.77;7.53;;;;;;;;;;10301059;28;20099;-64
2021/01/11 22:28:12;;;;;;;14.03;6.43;;;;;;;;;;10272362;28;20046;-65
2021/01/11 22:33:10;;;;;;;11.87;6.20;;;;;;;;;;10289307;28;20295;-64
2021/01/11 22:38:08;;;;;;;14.20;5.73;;;;;;;;;;10289099;28;20034;-65
2021/01/11 22:43:06;;;;;;;10.23;5.87;;;;;;;;;;10284323;28;20064;-65
2021/01/11 22:48:04;;;;;;;13.85;6.03;;;;;;;;;;10282502;28;20133;-65
2021/01/11 22:53:02;;;;;;;10.27;6.00;;;;;;;;;;10267740;28;20046;-63
2021/01/11 22:57:59;;;;;;;15.23;5.57;;;;;;;;;;10278978;28;20053;-65
2021/01/11 23:02:57;;;;;;;16.23;5.40;;;;;;;;;;10293273;28;20044;-66
2021/01/11 23:07:54;;;;;;;10.20;4.67;;;;;;;;;;10287403;28;20498;-64
2021/01/11 23:12:52;;;;;;;11.07;5.30;;;;;;;;;;10277683;28;20415;-64
2021/01/11 23:17:50;;;;;;;11.87;5.07;;;;;;;;;;10293606;28;20041;-65
2021/01/11 23:22:48;;;;;;;9.75;4.85;;;;;;;;;;10287655;28;20037;-64
2021/01/11 23:27:45;;;;;;;7.25;4.18;;;;;;;;;;10293593;28;20041;-62
2021/01/11 23:32:43;;;;;;;8.87;4.57;;;;;;;;;;10252892;28;20041;-63
2021/01/11 23:37:43;;;;;;;10.10;4.35;;;;;;;;;;10283270;28;20046;-63
2021/01/11 23:42:41;;;;;;;9.43;4.07;;;;;;;;;;10306426;28;20745;-64
2021/01/11 23:47:38;;;;;;;7.47;3.77;;;;;;;;;;10299551;28;20052;-65
2021/01/11 23:52:36;;;;;;;5.83;3.80;;;;;;;;;;10302018;28;20172;-64
2021/01/11 23:57:34;;;;;;;7.18;4.45;;;;;;;;;;10297202;28;20564;-64
